sensor_id;sensor_type;location;lat;lon;timestamp;P1;durP1;ratioP1;P2;durP2;ratioP2
12880;SDS011;6508;53.786;9.996;2023-12-20T00:01:16;16.55;;;3.20;;
12880;SDS011;6508;53.786;9.996;2023-12-20T00:03:45;15.45;;;3.22;;
12880;SDS011;6508;53.786;9.996;2023-12-20T00:06:12;15.82;;;3.28;;
12880;SDS011;6508;53.786;9.996;2023-12-20T00:08:40;18.50;;;2.53;;
12880;SDS011;6508;53.786;9.996;2023-12-20T00:11:08;19.05;;;2.80;;
12880;SDS011;6508;53.786;9.996;2023-12-20T00:13:35;8.43;;;2.22;;
12880;SDS011;6508;53.786;9.996;2023-12-20T00:16:05;21.55;;;3.33;;
12880;SDS011;6508;53.786;9.996;2023-12-20T00:18:32;19.13;;;3.83;;
12880;SDS011;6508;53.786;9.996;2023-12-20T00:21:00;20.95;;;5.45;;
12880;SDS011;6508;53.786;9.996;2023-12-20T00:23:28;17.13;;;5.10;;
12880;SDS011;6508;53.786;9.996;2023-12-20T00:25:56;12.77;;;4.25;;
12880;SDS011;6508;53.786;9.996;2023-12-20T00:28:25;22.83;;;5.55;;
12880;SDS011;6508;53.786;9.996;2023-12-20T00:30:52;18.95;;;5.75;;
12880;SDS011;6508;53.786;9.996;2023-12-20T00:33:22;23.25;;;5.88;;
12880;SDS011;6508;53.786;9.996;2023-12-20T00:35:51;13.20;;;4.43;;
12880;SDS011;6508;53.786;9.996;2023-12-20T00:38:19;19.25;;;4.65;;
12880;SDS011;6508;53.786;9.996;2023-12-20T00:40:46;14.93;;;3.50;;
12880;SDS011;6508;53.786;9.996;2023-12-20T00:43:16;21.70;;;3.92;;
12880;SDS011;6508;53.786;9.996;2023-12-20T00:45:44;13.50;;;3.50;;
12880;SDS011;6508;53.786;9.996;2023-12-20T00:48:12;17.85;;;3.80;;
12880;SDS011;6508;53.786;9.996;2023-12-20T00:50:41;12.75;;;3.03;;
12880;SDS011;6508;53.786;9.996;2023-12-20T00:53:09;14.20;;;2.83;;
12880;SDS011;6508;53.786;9.996;2023-12-20T00:55:37;11.35;;;2.70;;
12880;SDS011;6508;53.786;9.996;2023-12-20T00:58:04;11.10;;;2.15;;
12880;SDS011;6508;53.786;9.996;2023-12-20T01:00:32;21.35;;;3.05;;
12880;SDS011;6508;53.786;9.996;2023-12-20T01:03:00;21.45;;;3.10;;
12880;SDS011;6508;53.786;9.996;2023-12-20T01:05:28;11.25;;;2.63;;
12880;SDS011;6508;53.786;9.996;2023-12-20T01:07:57;15.80;;;2.72;;
12880;SDS011;6508;53.786;9.996;2023-12-20T01:10:25;17.67;;;2.85;;
12880;SDS011;6508;53.786;9.996;2023-12-20T01:12:54;23.58;;;2.70;;
12880;SDS011;6508;53.786;9.996;2023-12-20T01:15:22;19.88;;;3.75;;
12880;SDS011;6508;53.786;9.996;2023-12-20T01:17:51;16.42;;;3.15;;
12880;SDS011;6508;53.786;9.996;2023-12-20T01:20:19;24.55;;;2.90;;
12880;SDS011;6508;53.786;9.996;2023-12-20T01:22:47;17.10;;;4.13;;
12880;SDS011;6508;53.786;9.996;2023-12-20T01:25:16;21.75;;;3.50;;
12880;SDS011;6508;53.786;9.996;2023-12-20T01:27:44;10.50;;;2.53;;
12880;SDS011;6508;53.786;9.996;2023-12-20T01:30:13;17.55;;;3.03;;
12880;SDS011;6508;53.786;9.996;2023-12-20T01:32:41;14.50;;;2.55;;
12880;SDS011;6508;53.786;9.996;2023-12-20T01:35:09;17.98;;;2.53;;
12880;SDS011;6508;53.786;9.996;2023-12-20T01:37:39;17.05;;;3.13;;
12880;SDS011;6508;53.786;9.996;2023-12-20T01:40:06;18.83;;;3.15;;
12880;SDS011;6508;53.786;9.996;2023-12-20T01:42:36;19.30;;;2.65;;
12880;SDS011;6508;53.786;9.996;2023-12-20T01:45:04;13.90;;;3.00;;
12880;SDS011;6508;53.786;9.996;2023-12-20T01:47:32;15.20;;;3.13;;
12880;SDS011;6508;53.786;9.996;2023-12-20T01:49:59;17.40;;;3.13;;
12880;SDS011;6508;53.786;9.996;2023-12-20T01:52:30;15.95;;;2.58;;
12880;SDS011;6508;53.786;9.996;2023-12-20T01:55:00;9.30;;;3.28;;
12880;SDS011;6508;53.786;9.996;2023-12-20T01:57:29;11.95;;;3.03;;
12880;SDS011;6508;53.786;9.996;2023-12-20T01:59:59;14.80;;;2.78;;
12880;SDS011;6508;53.786;9.996;2023-12-20T02:02:27;16.27;;;2.90;;
12880;SDS011;6508;53.786;9.996;2023-12-20T02:04:55;18.65;;;3.10;;
12880;SDS011;6508;53.786;9.996;2023-12-20T02:07:24;9.13;;;2.45;;
12880;SDS011;6508;53.786;9.996;2023-12-20T02:09:52;14.38;;;3.10;;
12880;SDS011;6508;53.786;9.996;2023-12-20T02:12:19;10.93;;;3.35;;
12880;SDS011;6508;53.786;9.996;2023-12-20T02:14:47;16.50;;;2.65;;
12880;SDS011;6508;53.786;9.996;2023-12-20T02:17:17;19.75;;;3.03;;
12880;SDS011;6508;53.786;9.996;2023-12-20T02:19:45;14.88;;;2.67;;
12880;SDS011;6508;53.786;9.996;2023-12-20T02:22:15;23.30;;;3.15;;
12880;SDS011;6508;53.786;9.996;2023-12-20T02:24:43;9.50;;;2.80;;
12880;SDS011;6508;53.786;9.996;2023-12-20T02:27:11;12.85;;;2.78;;
12880;SDS011;6508;53.786;9.996;2023-12-20T02:29:39;18.58;;;2.88;;
12880;SDS011;6508;53.786;9.996;2023-12-20T02:32:07;21.40;;;2.90;;
12880;SDS011;6508;53.786;9.996;2023-12-20T02:34:35;13.25;;;3.33;;
12880;SDS011;6508;53.786;9.996;2023-12-20T02:37:03;11.85;;;2.67;;
12880;SDS011;6508;53.786;9.996;2023-12-20T02:39:32;13.65;;;3.28;;
12880;SDS011;6508;53.786;9.996;2023-12-20T02:42:00;11.02;;;3.67;;
12880;SDS011;6508;53.786;9.996;2023-12-20T02:44:28;17.05;;;3.83;;
12880;SDS011;6508;53.786;9.996;2023-12-20T02:46:56;13.35;;;3.03;;
12880;SDS011;6508;53.786;9.996;2023-12-20T02:49:24;13.23;;;2.72;;
12880;SDS011;6508;53.786;9.996;2023-12-20T02:51:52;9.40;;;3.20;;
12880;SDS011;6508;53.786;9.996;2023-12-20T02:54:20;13.02;;;3.58;;
12880;SDS011;6508;53.786;9.996;2023-12-20T02:56:49;14.20;;;3.03;;
12880;SDS011;6508;53.786;9.996;2023-12-20T02:59:17;14.43;;;3.10;;
12880;SDS011;6508;53.786;9.996;2023-12-20T03:01:45;14.63;;;3.00;;
12880;SDS011;6508;53.786;9.996;2023-12-20T03:04:13;9.25;;;2.50;;
12880;SDS011;6508;53.786;9.996;2023-12-20T03:06:40;11.85;;;2.85;;
12880;SDS011;6508;53.786;9.996;2023-12-20T03:09:08;13.63;;;2.67;;
12880;SDS011;6508;53.786;9.996;2023-12-20T03:11:36;17.00;;;3.67;;
12880;SDS011;6508;53.786;9.996;2023-12-20T03:14:05;12.63;;;3.58;;
12880;SDS011;6508;53.786;9.996;2023-12-20T03:16:33;12.27;;;3.45;;
12880;SDS011;6508;53.786;9.996;2023-12-20T03:19:02;8.52;;;2.95;;
12880;SDS011;6508;53.786;9.996;2023-12-20T03:21:30;6.68;;;2.90;;
12880;SDS011;6508;53.786;9.996;2023-12-20T03:23:58;10.27;;;3.25;;
12880;SDS011;6508;53.786;9.996;2023-12-20T03:26:26;11.48;;;4.15;;
12880;SDS011;6508;53.786;9.996;2023-12-20T03:28:53;14.70;;;4.00;;
12880;SDS011;6508;53.786;9.996;2023-12-20T03:31:22;11.95;;;3.92;;
12880;SDS011;6508;53.786;9.996;2023-12-20T03:33:50;19.17;;;4.35;;
12880;SDS011;6508;53.786;9.996;2023-12-20T03:36:20;10.93;;;4.07;;
12880;SDS011;6508;53.786;9.996;2023-12-20T03:38:48;11.77;;;4.78;;
12880;SDS011;6508;53.786;9.996;2023-12-20T03:41:15;15.00;;;3.58;;
12880;SDS011;6508;53.786;9.996;2023-12-20T03:43:43;14.10;;;3.90;;
12880;SDS011;6508;53.786;9.996;2023-12-20T03:46:11;15.77;;;4.30;;
12880;SDS011;6508;53.786;9.996;2023-12-20T03:48:40;11.85;;;3.58;;
12880;SDS011;6508;53.786;9.996;2023-12-20T03:51:08;12.68;;;3.45;;
12880;SDS011;6508;53.786;9.996;2023-12-20T03:53:36;10.70;;;3.15;;
12880;SDS011;6508;53.786;9.996;2023-12-20T03:56:03;11.73;;;3.22;;
12880;SDS011;6508;53.786;9.996;2023-12-20T03:58:32;16.02;;;3.38;;
12880;SDS011;6508;53.786;9.996;2023-12-20T04:00:59;10.20;;;3.22;;
12880;SDS011;6508;53.786;9.996;2023-12-20T04:03:27;7.28;;;2.83;;
12880;SDS011;6508;53.786;9.996;2023-12-20T04:05:56;9.32;;;2.40;;
12880;SDS011;6508;53.786;9.996;2023-12-20T04:08:24;9.90;;;3.28;;
12880;SDS011;6508;53.786;9.996;2023-12-20T04:10:52;14.13;;;3.47;;
12880;SDS011;6508;53.786;9.996;2023-12-20T04:13:20;13.45;;;2.92;;
12880;SDS011;6508;53.786;9.996;2023-12-20T04:15:48;10.38;;;2.53;;
12880;SDS011;6508;53.786;9.996;2023-12-20T04:18:17;11.50;;;2.85;;
12880;SDS011;6508;53.786;9.996;2023-12-20T04:20:45;10.10;;;2.75;;
12880;SDS011;6508;53.786;9.996;2023-12-20T04:23:14;11.85;;;3.05;;
12880;SDS011;6508;53.786;9.996;2023-12-20T04:25:42;13.07;;;2.65;;
12880;SDS011;6508;53.786;9.996;2023-12-20T04:28:09;16.45;;;3.08;;
12880;SDS011;6508;53.786;9.996;2023-12-20T04:30:38;7.68;;;2.67;;
12880;SDS011;6508;53.786;9.996;2023-12-20T04:33:05;5.68;;;2.63;;
12880;SDS011;6508;53.786;9.996;2023-12-20T04:35:34;13.07;;;4.20;;
12880;SDS011;6508;53.786;9.996;2023-12-20T04:38:00;10.85;;;2.50;;
12880;SDS011;6508;53.786;9.996;2023-12-20T04:40:29;8.82;;;2.70;;
12880;SDS011;6508;53.786;9.996;2023-12-20T04:42:57;6.85;;;2.97;;
12880;SDS011;6508;53.786;9.996;2023-12-20T04:45:25;8.05;;;2.80;;
12880;SDS011;6508;53.786;9.996;2023-12-20T04:47:52;9.95;;;3.15;;
12880;SDS011;6508;53.786;9.996;2023-12-20T04:50:20;14.45;;;3.65;;
12880;SDS011;6508;53.786;9.996;2023-12-20T04:52:49;9.88;;;2.85;;
12880;SDS011;6508;53.786;9.996;2023-12-20T04:55:16;9.40;;;3.10;;
12880;SDS011;6508;53.786;9.996;2023-12-20T04:57:46;10.00;;;2.67;;
12880;SDS011;6508;53.786;9.996;2023-12-20T05:00:14;12.88;;;3.00;;
12880;SDS011;6508;53.786;9.996;2023-12-20T05:02:42;11.52;;;3.13;;
12880;SDS011;6508;53.786;9.996;2023-12-20T05:05:11;11.98;;;2.58;;
12880;SDS011;6508;53.786;9.996;2023-12-20T05:07:39;16.80;;;2.65;;
12880;SDS011;6508;53.786;9.996;2023-12-20T05:10:07;9.15;;;2.13;;
12880;SDS011;6508;53.786;9.996;2023-12-20T05:12:36;7.75;;;2.88;;
12880;SDS011;6508;53.786;9.996;2023-12-20T05:15:06;10.48;;;2.22;;
12880;SDS011;6508;53.786;9.996;2023-12-20T05:17:34;13.05;;;2.75;;
12880;SDS011;6508;53.786;9.996;2023-12-20T05:20:02;5.93;;;2.08;;
12880;SDS011;6508;53.786;9.996;2023-12-20T05:22:30;8.05;;;2.20;;
12880;SDS011;6508;53.786;9.996;2023-12-20T05:24:58;10.77;;;3.75;;
12880;SDS011;6508;53.786;9.996;2023-12-20T05:27:26;13.90;;;2.55;;
12880;SDS011;6508;53.786;9.996;2023-12-20T05:29:53;10.90;;;3.30;;
12880;SDS011;6508;53.786;9.996;2023-12-20T05:32:25;9.57;;;2.28;;
12880;SDS011;6508;53.786;9.996;2023-12-20T05:34:53;8.73;;;3.10;;
12880;SDS011;6508;53.786;9.996;2023-12-20T05:37:21;10.35;;;2.65;;
12880;SDS011;6508;53.786;9.996;2023-12-20T05:39:48;8.20;;;2.17;;
12880;SDS011;6508;53.786;9.996;2023-12-20T05:42:16;8.98;;;2.40;;
12880;SDS011;6508;53.786;9.996;2023-12-20T05:44:44;8.40;;;2.08;;
12880;SDS011;6508;53.786;9.996;2023-12-20T05:47:12;10.50;;;2.63;;
12880;SDS011;6508;53.786;9.996;2023-12-20T05:49:41;13.48;;;3.13;;
12880;SDS011;6508;53.786;9.996;2023-12-20T05:52:10;8.05;;;2.50;;
12880;SDS011;6508;53.786;9.996;2023-12-20T05:54:37;14.18;;;2.97;;
12880;SDS011;6508;53.786;9.996;2023-12-20T05:57:05;8.13;;;2.28;;
12880;SDS011;6508;53.786;9.996;2023-12-20T05:59:32;8.85;;;2.92;;
12880;SDS011;6508;53.786;9.996;2023-12-20T06:02:00;11.07;;;3.25;;
12880;SDS011;6508;53.786;9.996;2023-12-20T06:04:28;11.02;;;3.13;;
12880;SDS011;6508;53.786;9.996;2023-12-20T06:06:57;10.10;;;2.75;;
12880;SDS011;6508;53.786;9.996;2023-12-20T06:09:26;18.10;;;3.90;;
12880;SDS011;6508;53.786;9.996;2023-12-20T06:11:57;9.82;;;2.83;;
12880;SDS011;6508;53.786;9.996;2023-12-20T06:14:25;9.90;;;2.95;;
12880;SDS011;6508;53.786;9.996;2023-12-20T06:16:53;11.95;;;3.22;;
12880;SDS011;6508;53.786;9.996;2023-12-20T06:19:20;11.57;;;2.35;;
12880;SDS011;6508;53.786;9.996;2023-12-20T06:21:48;7.53;;;1.73;;
12880;SDS011;6508;53.786;9.996;2023-12-20T06:24:17;11.43;;;2.72;;
12880;SDS011;6508;53.786;9.996;2023-12-20T06:26:45;12.40;;;3.42;;
12880;SDS011;6508;53.786;9.996;2023-12-20T06:29:12;9.43;;;3.28;;
12880;SDS011;6508;53.786;9.996;2023-12-20T06:31:40;10.57;;;2.50;;
12880;SDS011;6508;53.786;9.996;2023-12-20T06:34:08;8.60;;;3.53;;
12880;SDS011;6508;53.786;9.996;2023-12-20T06:36:35;10.88;;;3.00;;
12880;SDS011;6508;53.786;9.996;2023-12-20T06:39:03;14.88;;;4.20;;
12880;SDS011;6508;53.786;9.996;2023-12-20T06:41:32;15.38;;;3.58;;
12880;SDS011;6508;53.786;9.996;2023-12-20T06:44:00;11.05;;;3.33;;
12880;SDS011;6508;53.786;9.996;2023-12-20T06:46:27;15.82;;;4.07;;
12880;SDS011;6508;53.786;9.996;2023-12-20T06:48:55;14.00;;;3.40;;
12880;SDS011;6508;53.786;9.996;2023-12-20T06:51:23;16.60;;;3.83;;
12880;SDS011;6508;53.786;9.996;2023-12-20T06:53:51;15.52;;;3.55;;
12880;SDS011;6508;53.786;9.996;2023-12-20T06:56:19;13.60;;;3.70;;
12880;SDS011;6508;53.786;9.996;2023-12-20T06:58:48;11.55;;;3.53;;
12880;SDS011;6508;53.786;9.996;2023-12-20T07:01:16;14.93;;;4.57;;
12880;SDS011;6508;53.786;9.996;2023-12-20T07:03:44;14.88;;;3.53;;
12880;SDS011;6508;53.786;9.996;2023-12-20T07:06:12;16.13;;;3.92;;
12880;SDS011;6508;53.786;9.996;2023-12-20T07:08:43;12.85;;;3.60;;
12880;SDS011;6508;53.786;9.996;2023-12-20T07:11:10;12.18;;;3.22;;
12880;SDS011;6508;53.786;9.996;2023-12-20T07:13:38;8.35;;;3.13;;
12880;SDS011;6508;53.786;9.996;2023-12-20T07:16:07;11.63;;;3.90;;
12880;SDS011;6508;53.786;9.996;2023-12-20T07:18:35;14.00;;;3.67;;
12880;SDS011;6508;53.786;9.996;2023-12-20T07:21:03;13.57;;;2.90;;
12880;SDS011;6508;53.786;9.996;2023-12-20T07:23:30;9.75;;;2.90;;
12880;SDS011;6508;53.786;9.996;2023-12-20T07:25:58;17.30;;;4.38;;
12880;SDS011;6508;53.786;9.996;2023-12-20T07:28:26;11.98;;;3.40;;
12880;SDS011;6508;53.786;9.996;2023-12-20T07:30:53;19.40;;;3.65;;
12880;SDS011;6508;53.786;9.996;2023-12-20T07:33:22;17.33;;;3.50;;
12880;SDS011;6508;53.786;9.996;2023-12-20T07:35:50;16.80;;;3.47;;
12880;SDS011;6508;53.786;9.996;2023-12-20T07:38:19;16.45;;;3.35;;
12880;SDS011;6508;53.786;9.996;2023-12-20T07:40:47;10.52;;;3.00;;
12880;SDS011;6508;53.786;9.996;2023-12-20T07:43:15;14.73;;;3.17;;
12880;SDS011;6508;53.786;9.996;2023-12-20T07:45:42;11.43;;;3.47;;
12880;SDS011;6508;53.786;9.996;2023-12-20T07:48:11;16.73;;;3.28;;
12880;SDS011;6508;53.786;9.996;2023-12-20T07:50:40;10.40;;;3.47;;
12880;SDS011;6508;53.786;9.996;2023-12-20T07:53:08;14.73;;;3.60;;
12880;SDS011;6508;53.786;9.996;2023-12-20T07:55:36;14.30;;;3.60;;
12880;SDS011;6508;53.786;9.996;2023-12-20T07:58:04;10.88;;;2.63;;
12880;SDS011;6508;53.786;9.996;2023-12-20T08:00:32;13.88;;;3.72;;
12880;SDS011;6508;53.786;9.996;2023-12-20T08:03:00;19.55;;;3.85;;
12880;SDS011;6508;53.786;9.996;2023-12-20T08:05:29;16.05;;;4.38;;
12880;SDS011;6508;53.786;9.996;2023-12-20T08:07:59;7.93;;;3.25;;
12880;SDS011;6508;53.786;9.996;2023-12-20T08:10:26;13.98;;;4.18;;
12880;SDS011;6508;53.786;9.996;2023-12-20T08:12:56;15.05;;;3.45;;
12880;SDS011;6508;53.786;9.996;2023-12-20T08:15:23;14.35;;;4.15;;
12880;SDS011;6508;53.786;9.996;2023-12-20T08:17:51;13.73;;;4.07;;
12880;SDS011;6508;53.786;9.996;2023-12-20T08:20:19;12.88;;;3.42;;
12880;SDS011;6508;53.786;9.996;2023-12-20T08:22:59;11.35;;;4.10;;
12880;SDS011;6508;53.786;9.996;2023-12-20T08:25:27;11.40;;;3.33;;
12880;SDS011;6508;53.786;9.996;2023-12-20T08:27:55;13.85;;;3.60;;
12880;SDS011;6508;53.786;9.996;2023-12-20T08:30:23;14.05;;;2.95;;
12880;SDS011;6508;53.786;9.996;2023-12-20T08:32:51;13.77;;;3.33;;
12880;SDS011;6508;53.786;9.996;2023-12-20T08:35:19;12.38;;;3.28;;
12880;SDS011;6508;53.786;9.996;2023-12-20T08:37:47;15.02;;;3.55;;
12880;SDS011;6508;53.786;9.996;2023-12-20T08:40:16;13.55;;;3.97;;
12880;SDS011;6508;53.786;9.996;2023-12-20T08:42:44;10.68;;;3.03;;
12880;SDS011;6508;53.786;9.996;2023-12-20T08:45:12;12.05;;;3.47;;
12880;SDS011;6508;53.786;9.996;2023-12-20T08:47:40;7.65;;;2.92;;
12880;SDS011;6508;53.786;9.996;2023-12-20T08:50:12;20.92;;;3.95;;
12880;SDS011;6508;53.786;9.996;2023-12-20T08:52:40;13.85;;;4.13;;
12880;SDS011;6508;53.786;9.996;2023-12-20T08:55:08;15.07;;;3.38;;
12880;SDS011;6508;53.786;9.996;2023-12-20T08:57:38;9.10;;;3.08;;
12880;SDS011;6508;53.786;9.996;2023-12-20T09:00:06;8.82;;;2.67;;
12880;SDS011;6508;53.786;9.996;2023-12-20T09:02:35;8.90;;;2.55;;
12880;SDS011;6508;53.786;9.996;2023-12-20T09:05:04;4.57;;;1.25;;
12880;SDS011;6508;53.786;9.996;2023-12-20T09:07:32;3.47;;;1.10;;
12880;SDS011;6508;53.786;9.996;2023-12-20T09:10:00;4.25;;;1.48;;
12880;SDS011;6508;53.786;9.996;2023-12-20T09:12:29;3.88;;;0.85;;
12880;SDS011;6508;53.786;9.996;2023-12-20T09:14:58;4.30;;;1.10;;
12880;SDS011;6508;53.786;9.996;2023-12-20T09:17:27;0.70;;;0.40;;
12880;SDS011;6508;53.786;9.996;2023-12-20T09:19:56;2.33;;;0.77;;
12880;SDS011;6508;53.786;9.996;2023-12-20T09:22:26;2.15;;;0.50;;
12880;SDS011;6508;53.786;9.996;2023-12-20T09:24:54;0.80;;;0.80;;
12880;SDS011;6508;53.786;9.996;2023-12-20T09:27:22;2.45;;;0.75;;
12880;SDS011;6508;53.786;9.996;2023-12-20T09:29:49;2.13;;;0.47;;
12880;SDS011;6508;53.786;9.996;2023-12-20T09:32:19;0.57;;;0.30;;
12880;SDS011;6508;53.786;9.996;2023-12-20T09:34:47;1.63;;;0.60;;
12880;SDS011;6508;53.786;9.996;2023-12-20T09:37:15;0.55;;;0.28;;
12880;SDS011;6508;53.786;9.996;2023-12-20T09:39:43;0.50;;;0.30;;
12880;SDS011;6508;53.786;9.996;2023-12-20T09:42:11;1.00;;;0.30;;
12880;SDS011;6508;53.786;9.996;2023-12-20T09:44:39;1.55;;;0.40;;
12880;SDS011;6508;53.786;9.996;2023-12-20T09:47:11;1.02;;;0.60;;
12880;SDS011;6508;53.786;9.996;2023-12-20T09:49:40;0.70;;;0.25;;
12880;SDS011;6508;53.786;9.996;2023-12-20T09:52:10;0.55;;;0.43;;
12880;SDS011;6508;53.786;9.996;2023-12-20T09:54:38;2.47;;;0.52;;
12880;SDS011;6508;53.786;9.996;2023-12-20T09:57:07;0.75;;;0.50;;
12880;SDS011;6508;53.786;9.996;2023-12-20T09:59:35;1.95;;;0.43;;
12880;SDS011;6508;53.786;9.996;2023-12-20T10:02:03;2.88;;;0.70;;
12880;SDS011;6508;53.786;9.996;2023-12-20T10:04:32;6.75;;;0.80;;
12880;SDS011;6508;53.786;9.996;2023-12-20T10:07:03;2.22;;;0.70;;
12880;SDS011;6508;53.786;9.996;2023-12-20T10:09:32;4.88;;;0.80;;
12880;SDS011;6508;53.786;9.996;2023-12-20T10:12:02;3.17;;;0.80;;
12880;SDS011;6508;53.786;9.996;2023-12-20T10:14:32;4.60;;;1.05;;
12880;SDS011;6508;53.786;9.996;2023-12-20T10:17:01;2.63;;;1.30;;
12880;SDS011;6508;53.786;9.996;2023-12-20T10:19:29;4.50;;;0.70;;
12880;SDS011;6508;53.786;9.996;2023-12-20T10:21:57;4.05;;;1.10;;
12880;SDS011;6508;53.786;9.996;2023-12-20T10:24:29;4.57;;;1.75;;
12880;SDS011;6508;53.786;9.996;2023-12-20T10:27:01;5.07;;;0.95;;
12880;SDS011;6508;53.786;9.996;2023-12-20T10:29:33;3.90;;;0.90;;
12880;SDS011;6508;53.786;9.996;2023-12-20T10:34:53;2.22;;;0.63;;
12880;SDS011;6508;53.786;9.996;2023-12-20T10:37:21;3.58;;;1.10;;
12880;SDS011;6508;53.786;9.996;2023-12-20T10:39:50;3.67;;;1.35;;
12880;SDS011;6508;53.786;9.996;2023-12-20T10:42:19;4.40;;;0.75;;
12880;SDS011;6508;53.786;9.996;2023-12-20T10:44:49;7.57;;;1.10;;
12880;SDS011;6508;53.786;9.996;2023-12-20T10:47:16;11.07;;;1.20;;
12880;SDS011;6508;53.786;9.996;2023-12-20T10:49:44;3.25;;;1.02;;
12880;SDS011;6508;53.786;9.996;2023-12-20T10:52:12;4.13;;;0.90;;
12880;SDS011;6508;53.786;9.996;2023-12-20T10:54:40;5.53;;;1.10;;
12880;SDS011;6508;53.786;9.996;2023-12-20T10:57:09;1.48;;;1.02;;
12880;SDS011;6508;53.786;9.996;2023-12-20T10:59:37;3.95;;;1.17;;
12880;SDS011;6508;53.786;9.996;2023-12-20T11:02:05;6.68;;;1.42;;
12880;SDS011;6508;53.786;9.996;2023-12-20T11:04:37;5.20;;;1.88;;
12880;SDS011;6508;53.786;9.996;2023-12-20T11:07:08;4.85;;;1.30;;
12880;SDS011;6508;53.786;9.996;2023-12-20T11:09:40;2.58;;;0.77;;
12880;SDS011;6508;53.786;9.996;2023-12-20T11:12:13;2.47;;;1.23;;
12880;SDS011;6508;53.786;9.996;2023-12-20T11:14:41;7.00;;;1.40;;
12880;SDS011;6508;53.786;9.996;2023-12-20T11:17:10;3.53;;;1.48;;
12880;SDS011;6508;53.786;9.996;2023-12-20T11:19:43;7.28;;;1.10;;
12880;SDS011;6508;53.786;9.996;2023-12-20T11:22:31;9.48;;;1.80;;
12880;SDS011;6508;53.786;9.996;2023-12-20T11:25:04;9.65;;;2.10;;
12880;SDS011;6508;53.786;9.996;2023-12-20T11:27:34;7.03;;;2.50;;
12880;SDS011;6508;53.786;9.996;2023-12-20T11:30:02;6.22;;;1.40;;
12880;SDS011;6508;53.786;9.996;2023-12-20T11:32:33;7.88;;;1.73;;
12880;SDS011;6508;53.786;9.996;2023-12-20T11:35:16;3.40;;;1.38;;
12880;SDS011;6508;53.786;9.996;2023-12-20T11:37:44;6.78;;;1.83;;
12880;SDS011;6508;53.786;9.996;2023-12-20T11:40:15;11.73;;;1.98;;
12880;SDS011;6508;53.786;9.996;2023-12-20T11:42:45;9.75;;;1.95;;
12880;SDS011;6508;53.786;9.996;2023-12-20T11:45:14;11.95;;;1.90;;
12880;SDS011;6508;53.786;9.996;2023-12-20T11:47:42;6.60;;;1.55;;
12880;SDS011;6508;53.786;9.996;2023-12-20T11:50:10;13.45;;;2.20;;
12880;SDS011;6508;53.786;9.996;2023-12-20T11:52:38;7.80;;;2.00;;
12880;SDS011;6508;53.786;9.996;2023-12-20T11:55:06;6.22;;;2.28;;
12880;SDS011;6508;53.786;9.996;2023-12-20T11:57:35;12.27;;;1.88;;
12880;SDS011;6508;53.786;9.996;2023-12-20T12:00:05;8.05;;;2.00;;
12880;SDS011;6508;53.786;9.996;2023-12-20T12:02:38;16.40;;;2.85;;
12880;SDS011;6508;53.786;9.996;2023-12-20T12:05:06;10.07;;;2.67;;
12880;SDS011;6508;53.786;9.996;2023-12-20T12:07:34;10.55;;;2.58;;
12880;SDS011;6508;53.786;9.996;2023-12-20T12:10:03;11.90;;;2.55;;
12880;SDS011;6508;53.786;9.996;2023-12-20T12:12:31;10.68;;;2.95;;
12880;SDS011;6508;53.786;9.996;2023-12-20T12:14:59;15.48;;;3.20;;
12880;SDS011;6508;53.786;9.996;2023-12-20T12:17:28;12.07;;;2.20;;
12880;SDS011;6508;53.786;9.996;2023-12-20T12:20:01;16.83;;;3.45;;
12880;SDS011;6508;53.786;9.996;2023-12-20T12:22:29;13.45;;;2.90;;
12880;SDS011;6508;53.786;9.996;2023-12-20T12:24:58;13.30;;;4.22;;
12880;SDS011;6508;53.786;9.996;2023-12-20T12:27:27;17.48;;;3.90;;
12880;SDS011;6508;53.786;9.996;2023-12-20T12:30:00;20.88;;;4.07;;
12880;SDS011;6508;53.786;9.996;2023-12-20T12:32:31;13.15;;;3.63;;
12880;SDS011;6508;53.786;9.996;2023-12-20T12:35:00;20.05;;;4.07;;
12880;SDS011;6508;53.786;9.996;2023-12-20T12:37:27;18.88;;;3.63;;
12880;SDS011;6508;53.786;9.996;2023-12-20T12:39:55;13.15;;;3.95;;
12880;SDS011;6508;53.786;9.996;2023-12-20T12:42:24;15.70;;;4.20;;
12880;SDS011;6508;53.786;9.996;2023-12-20T12:44:55;11.57;;;4.15;;
12880;SDS011;6508;53.786;9.996;2023-12-20T12:47:22;13.95;;;4.75;;
12880;SDS011;6508;53.786;9.996;2023-12-20T12:49:51;19.25;;;4.57;;
12880;SDS011;6508;53.786;9.996;2023-12-20T12:52:20;13.25;;;3.50;;
12880;SDS011;6508;53.786;9.996;2023-12-20T12:54:48;18.30;;;3.30;;
12880;SDS011;6508;53.786;9.996;2023-12-20T12:57:16;16.73;;;3.83;;
12880;SDS011;6508;53.786;9.996;2023-12-20T12:59:43;16.58;;;4.50;;
12880;SDS011;6508;53.786;9.996;2023-12-20T13:02:12;17.38;;;3.80;;
12880;SDS011;6508;53.786;9.996;2023-12-20T13:04:40;15.40;;;3.63;;
12880;SDS011;6508;53.786;9.996;2023-12-20T13:07:10;16.10;;;3.92;;
12880;SDS011;6508;53.786;9.996;2023-12-20T13:09:39;11.93;;;4.18;;
12880;SDS011;6508;53.786;9.996;2023-12-20T13:12:07;12.25;;;5.05;;
12880;SDS011;6508;53.786;9.996;2023-12-20T13:14:35;13.88;;;3.95;;
12880;SDS011;6508;53.786;9.996;2023-12-20T13:17:03;9.55;;;3.85;;
12880;SDS011;6508;53.786;9.996;2023-12-20T13:19:32;17.73;;;3.60;;
12880;SDS011;6508;53.786;9.996;2023-12-20T13:22:00;11.38;;;4.03;;
12880;SDS011;6508;53.786;9.996;2023-12-20T13:24:30;17.67;;;4.70;;
12880;SDS011;6508;53.786;9.996;2023-12-20T13:26:58;11.95;;;4.43;;
12880;SDS011;6508;53.786;9.996;2023-12-20T13:29:26;11.88;;;4.88;;
12880;SDS011;6508;53.786;9.996;2023-12-20T13:31:54;11.25;;;3.65;;
12880;SDS011;6508;53.786;9.996;2023-12-20T13:34:23;17.30;;;4.47;;
12880;SDS011;6508;53.786;9.996;2023-12-20T13:36:51;17.42;;;4.35;;
12880;SDS011;6508;53.786;9.996;2023-12-20T13:39:18;11.07;;;3.72;;
12880;SDS011;6508;53.786;9.996;2023-12-20T13:41:47;9.68;;;4.05;;
12880;SDS011;6508;53.786;9.996;2023-12-20T13:44:15;9.27;;;3.45;;
12880;SDS011;6508;53.786;9.996;2023-12-20T13:46:43;12.18;;;3.85;;
12880;SDS011;6508;53.786;9.996;2023-12-20T13:49:12;19.45;;;4.53;;
12880;SDS011;6508;53.786;9.996;2023-12-20T13:51:40;11.60;;;4.03;;
12880;SDS011;6508;53.786;9.996;2023-12-20T13:54:08;13.40;;;5.13;;
12880;SDS011;6508;53.786;9.996;2023-12-20T13:56:37;15.30;;;4.57;;
12880;SDS011;6508;53.786;9.996;2023-12-20T13:59:23;16.80;;;4.70;;
12880;SDS011;6508;53.786;9.996;2023-12-20T14:01:51;14.00;;;5.35;;
12880;SDS011;6508;53.786;9.996;2023-12-20T14:04:18;18.15;;;5.15;;
12880;SDS011;6508;53.786;9.996;2023-12-20T14:07:06;11.02;;;4.38;;
12880;SDS011;6508;53.786;9.996;2023-12-20T14:09:34;14.38;;;4.93;;
12880;SDS011;6508;53.786;9.996;2023-12-20T14:12:02;16.65;;;4.82;;
12880;SDS011;6508;53.786;9.996;2023-12-20T14:14:31;18.33;;;4.68;;
12880;SDS011;6508;53.786;9.996;2023-12-20T14:16:59;11.07;;;4.32;;
12880;SDS011;6508;53.786;9.996;2023-12-20T14:19:26;14.40;;;5.97;;
12880;SDS011;6508;53.786;9.996;2023-12-20T14:21:54;15.63;;;4.30;;
12880;SDS011;6508;53.786;9.996;2023-12-20T14:24:22;15.00;;;4.47;;
12880;SDS011;6508;53.786;9.996;2023-12-20T14:26:52;11.13;;;4.20;;
12880;SDS011;6508;53.786;9.996;2023-12-20T14:29:20;8.45;;;3.72;;
12880;SDS011;6508;53.786;9.996;2023-12-20T14:31:52;10.15;;;4.20;;
12880;SDS011;6508;53.786;9.996;2023-12-20T14:34:20;12.15;;;5.07;;
12880;SDS011;6508;53.786;9.996;2023-12-20T14:36:48;12.80;;;4.28;;
12880;SDS011;6508;53.786;9.996;2023-12-20T14:39:16;15.68;;;4.35;;
12880;SDS011;6508;53.786;9.996;2023-12-20T14:41:44;11.32;;;4.05;;
12880;SDS011;6508;53.786;9.996;2023-12-20T14:44:11;11.68;;;4.50;;
12880;SDS011;6508;53.786;9.996;2023-12-20T14:46:39;10.13;;;4.22;;
12880;SDS011;6508;53.786;9.996;2023-12-20T14:49:09;12.38;;;3.95;;
12880;SDS011;6508;53.786;9.996;2023-12-20T14:51:37;8.35;;;4.15;;
12880;SDS011;6508;53.786;9.996;2023-12-20T14:54:05;13.73;;;4.93;;
12880;SDS011;6508;53.786;9.996;2023-12-20T14:56:34;11.63;;;4.47;;
12880;SDS011;6508;53.786;9.996;2023-12-20T14:59:02;11.25;;;4.10;;
12880;SDS011;6508;53.786;9.996;2023-12-20T15:01:30;10.43;;;4.45;;
12880;SDS011;6508;53.786;9.996;2023-12-20T15:03:58;11.07;;;4.05;;